createdAt,value
2017-05-23T00:00:19.223Z,18.18
2017-05-23T00:00:38.479Z,18.24
2017-05-23T00:00:57.304Z,18.25
2017-05-23T00:01:15.561Z,18.28
2017-05-23T00:01:34.844Z,18.21
2017-05-23T00:01:54.117Z,18.27
2017-05-23T00:02:13.399Z,18.22
2017-05-23T00:02:32.143Z,18.19
2017-05-23T00:02:50.936Z,18.25
2017-05-23T00:03:10.242Z,18.31
2017-05-23T00:03:29.508Z,18.22
2017-05-23T00:03:48.750Z,18.27
2017-05-23T00:04:07.101Z,18.27
2017-05-23T00:04:26.435Z,18.24
2017-05-23T00:04:45.733Z,18.18
2017-05-23T00:05:04.000Z,18.24
2017-05-23T00:05:23.296Z,18.22
2017-05-23T00:05:42.567Z,18.16
2017-05-23T00:06:01.885Z,18.14
2017-05-23T00:06:20.677Z,18.03
2017-05-23T00:06:40.002Z,18.1
2017-05-23T00:06:59.482Z,18.1
2017-05-23T00:07:18.229Z,18.07
2017-05-23T00:07:36.988Z,18.06
2017-05-23T00:07:56.248Z,18.06
2017-05-23T00:08:15.508Z,18.09
2017-05-23T00:08:34.771Z,18.1
2017-05-23T00:08:53.523Z,18.06
2017-05-23T00:09:12.276Z,18.03
2017-05-23T00:09:31.531Z,18.07
2017-05-23T00:09:50.844Z,18.09
2017-05-23T00:10:10.124Z,18.09
2017-05-23T00:10:29.357Z,17.94
2017-05-23T00:10:48.132Z,18.11
2017-05-23T00:11:07.395Z,18.14
2017-05-23T00:11:26.680Z,18.07
2017-05-23T00:11:45.998Z,18.07
2017-05-23T00:12:05.347Z,18.1
2017-05-23T00:12:24.158Z,18.09
2017-05-23T00:12:42.952Z,18.06
2017-05-23T00:13:02.301Z,18.03
2017-05-23T00:13:21.051Z,18.09
2017-05-23T00:13:40.338Z,18.14
2017-05-23T00:13:59.637Z,18.11
2017-05-23T00:14:18.940Z,18.11
2017-05-23T00:14:38.304Z,18.11
2017-05-23T00:14:57.636Z,18.14
2017-05-23T00:15:16.465Z,18.16
2017-05-23T00:15:35.546Z,18.14
2017-05-23T00:15:54.368Z,18.22
2017-05-23T00:16:13.710Z,18.24
2017-05-23T00:16:33.005Z,18.21
2017-05-23T00:16:52.350Z,18.29
2017-05-23T00:17:11.758Z,18.22
2017-05-23T00:17:30.025Z,18.28
2017-05-23T00:17:49.299Z,18.28
2017-05-23T00:18:08.138Z,18.22
2017-05-23T00:18:26.892Z,18.16
2017-05-23T00:18:46.378Z,18.31
2017-05-23T00:19:05.930Z,18.28
2017-05-23T00:19:24.717Z,18.29
2017-05-23T00:19:44.044Z,18.27
2017-05-23T00:20:03.350Z,18.28
2017-05-23T00:20:22.739Z,18.24
2017-05-23T00:20:41.569Z,18.25
2017-05-23T00:21:00.887Z,18.27
2017-05-23T00:21:20.250Z,18.21
2017-05-23T00:21:39.592Z,18.25
2017-05-23T00:21:58.906Z,18.21
2017-05-23T00:22:17.706Z,18.28
2017-05-23T00:22:36.576Z,18.22
2017-05-23T00:22:54.387Z,18.27
2017-05-23T00:23:13.742Z,18.18
2017-05-23T00:23:33.068Z,18.27
2017-05-23T00:25:17.526Z,18.29
2017-05-23T00:25:36.819Z,18.24
2017-05-23T00:25:55.599Z,18.32
2017-05-23T00:26:14.894Z,18.29
2017-05-23T00:26:33.685Z,18.32
2017-05-23T00:26:52.454Z,18.31
2017-05-23T00:27:11.730Z,18.25
2017-05-23T00:27:31.296Z,18.32
2017-05-23T00:27:50.200Z,18.29
2017-05-23T00:28:09.537Z,18.35
2017-05-23T00:28:28.842Z,18.28
2017-05-23T00:28:48.171Z,18.28
2017-05-23T00:29:07.479Z,18.4
2017-05-23T00:29:26.811Z,18.34
2017-05-23T00:29:46.239Z,18.35
2017-05-23T00:30:05.818Z,18.22
2017-05-23T00:30:25.202Z,18.35
2017-05-23T00:30:44.491Z,18.35
2017-05-23T00:31:04.086Z,18.34
2017-05-23T00:31:24.151Z,18.27
2017-05-23T00:31:43.085Z,18.27
2017-05-23T00:32:03.076Z,18.31
2017-05-23T00:32:23.115Z,18.19
2017-05-23T00:32:42.152Z,18.25
2017-05-23T00:33:01.116Z,18.35
2017-05-23T00:33:19.904Z,18.29
2017-05-23T00:33:39.223Z,18.29
2017-05-23T00:33:58.676Z,18.4
2017-05-23T00:34:18.090Z,18.39
2017-05-23T00:34:36.854Z,18.4
2017-05-23T00:34:56.131Z,18.4
2017-05-23T00:35:15.421Z,18.32
2017-05-23T00:35:34.760Z,18.39
2017-05-23T00:35:54.041Z,18.37
2017-05-23T00:36:13.275Z,18.43
2017-05-23T00:36:32.218Z,18.4
2017-05-23T00:36:51.672Z,18.39
2017-05-23T00:37:10.418Z,18.29
2017-05-23T00:37:29.714Z,18.37
2017-05-23T00:37:49.490Z,18.37
2017-05-23T00:38:08.807Z,18.43
2017-05-23T00:38:28.059Z,18.28
2017-05-23T00:38:47.372Z,18.29
2017-05-23T00:39:06.697Z,18.24
2017-05-23T00:39:26.185Z,18.37
2017-05-23T00:39:46.408Z,18.39
2017-05-23T00:40:05.241Z,18.34
2017-05-23T00:40:24.629Z,18.34
2017-05-23T00:40:43.422Z,18.35
2017-05-23T00:41:02.719Z,18.39
2017-05-23T00:41:21.994Z,18.34
2017-05-23T00:41:41.279Z,18.42
2017-05-23T00:42:00.084Z,18.35
2017-05-23T00:42:18.836Z,18.43
2017-05-23T00:42:38.125Z,18.39
2017-05-23T00:42:57.446Z,18.34
2017-05-23T00:43:16.754Z,18.37
2017-05-23T00:43:36.027Z,18.4
2017-05-23T00:43:54.274Z,18.46
2017-05-23T00:44:13.365Z,18.27
2017-05-23T00:44:33.212Z,18.31
2017-05-23T00:44:52.666Z,18.27
2017-05-23T00:45:12.422Z,18.34
2017-05-23T00:45:32.192Z,18.35
2017-05-23T00:45:51.628Z,18.31
2017-05-23T00:46:10.491Z,18.21
2017-05-23T00:46:29.810Z,18.35
2017-05-23T00:46:49.181Z,18.22
2017-05-23T00:47:09.111Z,18.24
2017-05-23T00:47:28.790Z,18.28
2017-05-23T00:47:48.406Z,18.25
2017-05-23T00:48:08.113Z,18.37
2017-05-23T00:48:27.522Z,18.29
2017-05-23T00:48:46.993Z,18.24
2017-05-23T00:49:06.941Z,18.39
2017-05-23T00:49:26.420Z,18.4
2017-05-23T00:49:45.739Z,18.35
2017-05-23T00:50:05.437Z,18.35
2017-05-23T00:50:25.689Z,18.39
2017-05-23T00:50:45.061Z,18.32
2017-05-23T00:51:04.443Z,18.35
2017-05-23T00:51:23.793Z,18.37
2017-05-23T00:51:43.109Z,18.31
2017-05-23T00:52:02.452Z,18.31
2017-05-23T00:52:21.755Z,18.25
2017-05-23T00:52:41.032Z,18.34
2017-05-23T00:53:00.438Z,18.35
2017-05-23T00:53:19.799Z,18.29
2017-05-23T00:53:38.813Z,18.27
2017-05-23T00:53:58.151Z,18.35
2017-05-23T00:54:17.470Z,18.25
2017-05-23T00:54:36.787Z,18.25
2017-05-23T00:54:56.121Z,18.16
2017-05-23T00:55:15.401Z,18.16
2017-05-23T00:55:34.296Z,18.14
2017-05-23T00:55:53.183Z,18.25
2017-05-23T00:56:12.479Z,18.27
2017-05-23T00:56:30.741Z,18.16
2017-05-23T00:56:50.060Z,18.18
2017-05-23T00:57:09.345Z,18.11
2017-05-23T00:57:28.645Z,18.19
2017-05-23T00:57:47.951Z,18.22
2017-05-23T00:58:07.202Z,18.19
2017-05-23T00:58:26.476Z,18.22
2017-05-23T00:58:45.759Z,18.24
2017-05-23T00:59:04.555Z,18.16
2017-05-23T00:59:23.845Z,18.28
2017-05-23T00:59:43.210Z,18.25
2017-05-23T01:00:02.571Z,18.24
2017-05-23T01:00:21.329Z,18.25
2017-05-23T01:00:40.105Z,18.29
2017-05-23T01:00:59.439Z,18.24
2017-05-23T01:01:18.227Z,18.21
2017-05-23T01:01:36.447Z,18.29
2017-05-23T01:01:55.223Z,18.31
2017-05-23T01:02:14.022Z,18.28
2017-05-23T01:02:33.311Z,18.27
2017-05-23T01:02:52.665Z,18.24
2017-05-23T01:03:11.458Z,18.27
2017-05-23T01:03:29.847Z,18.27
2017-05-23T01:04:21.976Z,18.29
2017-05-23T01:04:41.609Z,18.22
2017-05-23T01:05:01.294Z,18.22
2017-05-23T01:05:20.741Z,18.24
2017-05-23T01:05:40.070Z,18.22
2017-05-23T01:05:59.025Z,18.22
2017-05-23T01:06:18.411Z,18.29
2017-05-23T01:06:37.202Z,18.19
2017-05-23T01:06:56.478Z,18.18
2017-05-23T01:07:15.300Z,18.19
2017-05-23T01:07:34.675Z,18.13
2017-05-23T01:07:53.491Z,18.06
2017-05-23T01:08:12.263Z,18.11
2017-05-23T01:08:31.528Z,18.07
2017-05-23T01:08:50.897Z,18.06
2017-05-23T01:09:09.674Z,18.1
2017-05-23T01:09:29.076Z,18.09
2017-05-23T01:09:48.504Z,18.11
2017-05-23T01:10:07.827Z,18.11
2017-05-23T01:10:26.986Z,17.91
2017-05-23T01:10:46.295Z,18.1
2017-05-23T01:11:05.084Z,17.95
2017-05-23T01:11:24.391Z,17.88
2017-05-23T01:11:42.651Z,17.92
2017-05-23T01:12:01.931Z,17.94
2017-05-23T01:12:21.240Z,17.92
2017-05-23T01:12:40.471Z,17.91
2017-05-23T01:13:00.001Z,17.76
2017-05-23T01:13:19.278Z,17.76
2017-05-23T01:13:38.579Z,17.73
2017-05-23T01:13:57.326Z,17.6
2017-05-23T01:14:16.628Z,17.64
2017-05-23T01:14:35.944Z,17.54
2017-05-23T01:14:55.250Z,17.48
2017-05-23T01:15:14.525Z,17.47
2017-05-23T01:15:33.806Z,17.55
2017-05-23T01:15:53.057Z,17.35
2017-05-23T01:16:12.327Z,17.44
2017-05-23T01:16:31.606Z,17.35
2017-05-23T01:16:50.934Z,17.35
2017-05-23T01:17:10.237Z,17.33
2017-05-23T01:17:29.022Z,17.32
2017-05-23T01:17:47.907Z,17.28
2017-05-23T01:18:07.259Z,17.29
2017-05-23T01:18:26.097Z,17.32
2017-05-23T01:18:45.460Z,17.39
2017-05-23T01:19:04.746Z,17.35
2017-05-23T01:19:23.508Z,17.35
2017-05-23T01:19:41.775Z,17.39
2017-05-23T01:20:01.170Z,17.36
2017-05-23T01:20:21.131Z,17.23
2017-05-23T01:20:39.926Z,17.21
2017-05-23T01:20:59.242Z,17.32
2017-05-23T01:21:17.523Z,17.38
2017-05-23T01:21:36.826Z,17.32
2017-05-23T01:21:56.190Z,17.32
2017-05-23T01:22:15.071Z,17.3
2017-05-23T01:22:34.367Z,17.39
2017-05-23T01:22:53.704Z,17.38
2017-05-23T01:23:13.047Z,17.4
2017-05-23T01:23:32.393Z,17.29
2017-05-23T01:23:51.685Z,17.43
2017-05-23T01:24:11.403Z,17.32
2017-05-23T01:24:30.462Z,17.25
2017-05-23T01:24:49.776Z,17.25
2017-05-23T01:25:09.074Z,17.35
2017-05-23T01:25:26.902Z,17.28
2017-05-23T01:25:46.187Z,17.02
2017-05-23T01:26:05.481Z,17.13
2017-05-23T01:26:24.280Z,17.13
2017-05-23T01:26:43.579Z,17.15
2017-05-23T01:27:02.877Z,17.2
2017-05-23T01:27:22.195Z,17.05
2017-05-23T01:27:55.464Z,17.18
2017-05-23T01:28:14.247Z,17.14
2017-05-23T01:28:33.572Z,17.21
2017-05-23T01:28:52.427Z,17.15
2017-05-23T01:29:11.722Z,17.07
2017-05-23T01:29:31.053Z,17.1
2017-05-23T01:29:50.398Z,17.15
2017-05-23T01:30:10.019Z,17.2
2017-05-23T01:30:29.450Z,17.17
2017-05-23T01:30:48.262Z,17.15
2017-05-23T01:31:07.344Z,17.08
2017-05-23T01:31:25.078Z,17.03
2017-05-23T01:31:44.389Z,17.14
2017-05-23T01:32:03.691Z,17.18
2017-05-23T01:32:22.976Z,17.21
2017-05-23T01:32:42.281Z,17.13
2017-05-23T01:33:01.571Z,17.1
2017-05-23T01:33:20.872Z,17.03
2017-05-23T01:33:40.181Z,17.2
2017-05-23T01:33:58.965Z,17.17
2017-05-23T01:34:18.248Z,17.17
2017-05-23T01:34:37.525Z,17.15
2017-05-23T01:34:56.282Z,17.21
2017-05-23T01:35:15.565Z,17.17
2017-05-23T01:35:34.338Z,17.1
2017-05-23T01:35:53.669Z,17.14
2017-05-23T01:36:12.966Z,17.17
2017-05-23T01:36:32.275Z,17.11
2017-05-23T01:36:51.845Z,17.1
2017-05-23T01:37:10.619Z,17.15
2017-05-23T01:37:29.343Z,17.13
2017-05-23T01:37:48.658Z,17.08
2017-05-23T01:38:07.542Z,17.23
2017-05-23T01:38:26.916Z,17.05
2017-05-23T01:38:45.677Z,17.14
2017-05-23T01:39:04.475Z,17.18
2017-05-23T01:39:23.790Z,17.21
2017-05-23T01:39:43.097Z,17.13
2017-05-23T01:40:02.398Z,17.28
2017-05-23T01:40:21.891Z,17.25
2017-05-23T01:40:41.156Z,17.26
2017-05-23T01:41:00.894Z,17.18
2017-05-23T01:41:19.858Z,17.11
2017-05-23T01:41:39.269Z,17.14
2017-05-23T01:41:58.575Z,17.2
2017-05-23T01:42:17.334Z,17.17
2017-05-23T01:42:36.155Z,17.17
2017-05-23T01:42:55.475Z,17.2
2017-05-23T01:43:14.886Z,17.26
2017-05-23T01:43:34.319Z,17.11
2017-05-23T01:43:53.667Z,17.13
2017-05-23T01:44:12.981Z,17.21
2017-05-23T01:44:32.256Z,17.25
2017-05-23T01:44:50.521Z,17.2
2017-05-23T01:45:09.827Z,17.11
2017-05-23T01:45:29.111Z,17.18
2017-05-23T01:45:48.420Z,17.26
2017-05-23T01:46:07.712Z,17.17
2017-05-23T01:46:26.978Z,17.3
2017-05-23T01:46:46.233Z,17.35
2017-05-23T01:47:05.534Z,17.3
2017-05-23T01:47:24.341Z,17.35
2017-05-23T01:47:43.170Z,17.35
2017-05-23T01:48:02.471Z,17.28
2017-05-23T01:48:21.721Z,17.36
2017-05-23T01:48:39.975Z,17.38
2017-05-23T01:48:58.221Z,17.32
2017-05-23T01:49:17.542Z,17.29
2017-05-23T01:49:36.333Z,17.28
2017-05-23T01:49:55.100Z,17.14
2017-05-23T01:50:14.352Z,17.21
2017-05-23T01:50:33.627Z,17.23
2017-05-23T01:50:52.423Z,17.26
2017-05-23T01:51:11.220Z,17.29
2017-05-23T01:51:30.722Z,17.26
2017-05-23T01:51:50.543Z,17.32
2017-05-23T01:52:09.741Z,17.23
2017-05-23T01:52:28.513Z,17.23
2017-05-23T01:52:47.766Z,17.33
2017-05-23T01:53:07.032Z,17.25
2017-05-23T01:53:26.331Z,17.25
2017-05-23T01:53:44.617Z,17.32
2017-05-23T01:54:03.907Z,17.26
2017-05-23T01:54:23.189Z,17.08
2017-05-23T01:54:42.450Z,17.17
2017-05-23T01:55:01.712Z,17.11
2017-05-23T01:55:21.023Z,17.23
2017-05-23T01:55:40.285Z,17.13
2017-05-23T01:55:59.250Z,17.2
2017-05-23T01:56:18.718Z,17.15
2017-05-23T01:56:37.972Z,17.33
2017-05-23T01:56:57.289Z,17.3
2017-05-23T01:57:16.076Z,17.23
2017-05-23T01:57:35.401Z,17.33
2017-05-23T01:57:54.709Z,17.33
2017-05-23T01:58:14.035Z,17.32
2017-05-23T01:58:33.314Z,17.29
2017-05-23T01:58:52.647Z,17.32
2017-05-23T01:59:11.975Z,17.43
2017-05-23T01:59:31.303Z,17.23
2017-05-23T01:59:50.158Z,17.25
2017-05-23T02:00:09.068Z,17.29
2017-05-23T02:00:28.514Z,17.33
2017-05-23T02:00:47.784Z,17.23
2017-05-23T02:01:06.615Z,17.32
2017-05-23T02:01:25.908Z,17.2
2017-05-23T02:01:45.232Z,17.26
2017-05-23T02:02:04.510Z,17.26
2017-05-23T02:02:23.325Z,17.25
2017-05-23T02:02:42.075Z,17.3
2017-05-23T02:03:01.404Z,17.29
2017-05-23T02:03:20.373Z,17.2
2017-05-23T02:03:39.191Z,17.32
2017-05-23T02:03:58.003Z,17.29
2017-05-23T02:04:17.379Z,17.28
2017-05-23T02:04:36.174Z,17.35
2017-05-23T02:04:55.001Z,17.36
2017-05-23T02:05:14.360Z,17.36
2017-05-23T02:05:33.668Z,17.32
2017-05-23T02:05:52.457Z,17.26
2017-05-23T02:06:11.248Z,17.23
2017-05-23T02:06:29.478Z,17.2
2017-05-23T02:06:48.782Z,17.32
2017-05-23T02:07:07.528Z,17.33
2017-05-23T02:07:26.852Z,17.23
2017-05-23T02:07:45.610Z,17.32
2017-05-23T02:08:03.880Z,17.32
2017-05-23T02:08:23.141Z,17.28
2017-05-23T02:08:42.475Z,17.21
2017-05-23T02:09:01.881Z,17.3
2017-05-23T02:09:21.227Z,17.35
2017-05-23T02:09:40.487Z,17.36
2017-05-23T02:09:59.804Z,17.32
2017-05-23T02:10:18.572Z,17.29
2017-05-23T02:10:36.846Z,17.36
2017-05-23T02:10:55.107Z,17.33
2017-05-23T02:11:14.364Z,17.25
2017-05-23T02:11:33.672Z,17.32
2017-05-23T02:11:53.021Z,17.3
2017-05-23T02:12:11.290Z,17.36
2017-05-23T02:12:30.055Z,17.4
2017-05-23T02:12:49.330Z,17.3
2017-05-23T02:13:08.648Z,17.25
2017-05-23T02:13:27.480Z,17.38
2017-05-23T02:13:46.710Z,17.35
2017-05-23T02:14:05.486Z,17.35
2017-05-23T02:14:23.766Z,17.39
2017-05-23T02:14:43.074Z,17.38
2017-05-23T02:15:02.422Z,17.35
2017-05-23T02:15:20.676Z,17.38
2017-05-23T02:15:39.466Z,17.43
2017-05-23T02:15:58.747Z,17.46
2017-05-23T02:16:18.060Z,17.38
2017-05-23T02:16:36.852Z,17.36
2017-05-23T02:16:56.241Z,17.35
2017-05-23T02:17:15.036Z,17.43
2017-05-23T02:17:34.320Z,17.47
2017-05-23T02:17:53.602Z,17.47
2017-05-23T02:18:12.400Z,17.5
2017-05-23T02:18:31.717Z,17.53
2017-05-23T02:18:50.528Z,17.5
2017-05-23T02:19:10.048Z,17.48
2017-05-23T02:19:29.641Z,17.51
2017-05-23T02:19:48.980Z,17.48
2017-05-23T02:20:08.292Z,17.54
2017-05-23T02:20:27.851Z,17.46
2017-05-23T02:20:47.129Z,17.5
2017-05-23T02:21:06.428Z,17.57
2017-05-23T02:21:24.705Z,17.57
2017-05-23T02:21:43.474Z,17.47
2017-05-23T02:22:02.777Z,17.38
2017-05-23T02:22:22.054Z,17.44
2017-05-23T02:22:41.364Z,17.5
2017-05-23T02:23:00.118Z,17.4
2017-05-23T02:23:19.444Z,17.32
2017-05-23T02:23:38.784Z,17.33
2017-05-23T02:23:57.562Z,17.28
2017-05-23T02:24:16.294Z,17.32
2017-05-23T02:24:35.738Z,17.28
2017-05-23T02:24:55.101Z,17.28
2017-05-23T02:25:14.363Z,17.32
2017-05-23T02:25:33.666Z,17.4
2017-05-23T02:25:52.925Z,17.46
2017-05-23T02:26:11.213Z,17.4
2017-05-23T02:26:30.511Z,17.46
2017-05-23T02:26:49.783Z,17.38
2017-05-23T02:27:09.143Z,17.35
2017-05-23T02:27:27.901Z,17.53
2017-05-23T02:27:47.190Z,17.47
2017-05-23T02:28:05.960Z,17.4
2017-05-23T02:28:25.243Z,17.35
2017-05-23T02:28:44.519Z,17.35
2017-05-23T02:29:03.806Z,17.32
2017-05-23T02:29:23.135Z,17.46
2017-05-23T02:29:42.455Z,17.32
2017-05-23T02:30:01.775Z,17.4
2017-05-23T02:30:20.776Z,17.38
2017-05-23T02:30:39.559Z,17.36
2017-05-23T02:30:58.866Z,17.38
2017-05-23T02:31:18.156Z,17.36
2017-05-23T02:31:37.410Z,17.35
2017-05-23T02:31:56.677Z,17.28
2017-05-23T02:32:15.948Z,17.36
2017-05-23T02:32:35.255Z,17.36
2017-05-23T02:32:53.487Z,17.38
2017-05-23T02:33:12.744Z,17.43
2017-05-23T02:33:30.461Z,17.46
2017-05-23T02:33:49.736Z,17.44
2017-05-23T02:34:09.001Z,17.43
2017-05-23T02:34:28.292Z,17.5
2017-05-23T02:35:01.023Z,17.46
2017-05-23T02:35:20.276Z,17.47
2017-05-23T02:35:39.553Z,17.43
2017-05-23T02:35:58.821Z,17.5
2017-05-23T02:36:18.106Z,17.54
2017-05-23T02:36:37.362Z,17.5
2017-05-23T02:36:56.230Z,17.5
2017-05-23T02:37:15.510Z,17.55
2017-05-23T02:37:34.392Z,17.54
2017-05-23T02:37:53.313Z,17.54
2017-05-23T02:38:12.121Z,17.54
2017-05-23T02:38:31.405Z,17.58
2017-05-23T02:38:50.695Z,17.54
2017-05-23T02:39:09.975Z,17.55
2017-05-23T02:39:29.255Z,17.54
2017-05-23T02:39:48.495Z,17.63
2017-05-23T02:40:07.813Z,17.7
2017-05-23T02:40:27.341Z,17.67
2017-05-23T02:40:46.644Z,17.74
2017-05-23T02:41:06.462Z,17.7
2017-05-23T02:41:25.233Z,17.73
2017-05-23T02:41:44.510Z,17.74
2017-05-23T02:42:03.776Z,17.79
2017-05-23T02:42:23.017Z,17.7
2017-05-23T02:42:41.832Z,17.76
2017-05-23T02:43:00.144Z,17.73
2017-05-23T02:43:19.404Z,17.7
2017-05-23T02:43:38.166Z,17.69
2017-05-23T02:43:57.457Z,17.73
2017-05-23T02:44:16.741Z,17.71
2017-05-23T02:44:35.537Z,17.71
2017-05-23T02:44:54.357Z,17.74
2017-05-23T02:45:13.621Z,17.82
2017-05-23T02:45:32.883Z,17.79
2017-05-23T02:45:52.151Z,17.73
2017-05-23T02:46:11.442Z,17.66
2017-05-23T02:46:30.723Z,17.71
2017-05-23T02:46:50.002Z,17.66
2017-05-23T02:47:09.258Z,17.64
2017-05-23T02:47:28.079Z,17.67
2017-05-23T02:47:47.387Z,17.71
2017-05-23T02:48:06.664Z,17.73
2017-05-23T02:48:25.939Z,17.74
2017-05-23T02:48:44.696Z,17.76
2017-05-23T02:49:03.501Z,17.74
2017-05-23T02:49:22.743Z,17.67
2017-05-23T02:49:42.008Z,17.7
2017-05-23T02:50:01.306Z,17.71
2017-05-23T02:50:20.613Z,17.76
2017-05-23T02:50:39.925Z,17.69
2017-05-23T02:50:59.201Z,17.73
2017-05-23T02:51:18.479Z,17.71
2017-05-23T02:51:37.223Z,17.74
2017-05-23T02:51:56.522Z,17.79
2017-05-23T02:52:15.795Z,17.66
2017-05-23T02:52:35.130Z,17.63
2017-05-23T02:52:54.404Z,17.64
2017-05-23T02:53:13.787Z,17.64
2017-05-23T02:53:33.110Z,17.6
2017-05-23T02:53:51.895Z,17.74
2017-05-23T02:54:10.689Z,17.69
2017-05-23T02:54:29.459Z,17.73
2017-05-23T02:54:47.674Z,17.71
2017-05-23T02:55:06.967Z,17.69
2017-05-23T02:55:25.437Z,17.76
2017-05-23T02:55:44.315Z,17.64
2017-05-23T02:56:03.614Z,17.71
2017-05-23T02:56:22.901Z,17.71
2017-05-23T02:56:41.664Z,17.7
2017-05-23T02:57:00.916Z,17.64
2017-05-23T02:57:20.232Z,17.69
2017-05-23T02:57:39.008Z,17.66
2017-05-23T02:57:57.782Z,17.71
2017-05-23T02:58:16.535Z,17.74
2017-05-23T02:58:35.869Z,17.69
2017-05-23T02:58:55.218Z,17.71
2017-05-23T02:59:14.539Z,17.84
2017-05-23T02:59:33.810Z,17.71
2017-05-23T02:59:53.058Z,17.69
2017-05-23T03:00:12.352Z,17.82
2017-05-23T03:00:31.596Z,17.79
2017-05-23T03:00:50.370Z,17.71
2017-05-23T03:01:09.614Z,17.77
2017-05-23T03:01:28.880Z,17.74
2017-05-23T03:01:48.182Z,17.81
2017-05-23T03:02:07.450Z,17.76
2017-05-23T03:02:26.732Z,17.69
2017-05-23T03:02:46.001Z,17.79
2017-05-23T03:03:05.286Z,17.74
2017-05-23T03:03:24.570Z,17.71
2017-05-23T03:03:43.339Z,17.73
2017-05-23T03:04:02.641Z,17.87
2017-05-23T03:04:21.921Z,17.71
2017-05-23T03:04:40.684Z,17.79
2017-05-23T03:04:59.957Z,17.81
2017-05-23T03:05:19.256Z,17.81
2017-05-23T03:05:37.991Z,17.82
2017-05-23T03:05:56.783Z,17.77
2017-05-23T03:06:16.083Z,17.64
2017-05-23T03:06:34.852Z,17.47
2017-05-23T03:06:53.580Z,17.5
2017-05-23T03:07:12.353Z,17.57
2017-05-23T03:07:30.811Z,17.51
2017-05-23T03:07:50.099Z,17.53
2017-05-23T03:08:09.381Z,17.53
2017-05-23T03:08:28.725Z,17.44
2017-05-23T03:08:48.041Z,17.54
2017-05-23T03:09:06.790Z,17.46
2017-05-23T03:09:25.492Z,17.48
2017-05-23T03:09:44.740Z,17.55
2017-05-23T03:10:04.036Z,17.55
2017-05-23T03:10:23.283Z,17.48
2017-05-23T03:10:42.508Z,17.51
2017-05-23T03:11:01.269Z,17.57
2017-05-23T03:11:20.587Z,17.55
2017-05-23T03:11:39.375Z,17.55
2017-05-23T03:11:57.587Z,17.66
2017-05-23T03:12:16.840Z,17.6
2017-05-23T03:12:36.289Z,17.6
2017-05-23T03:12:55.117Z,17.55
2017-05-23T03:13:14.407Z,17.67
2017-05-23T03:13:33.712Z,17.63
2017-05-23T03:13:53.036Z,17.55
2017-05-23T03:14:12.322Z,17.57
2017-05-23T03:14:31.614Z,17.46
2017-05-23T03:14:50.375Z,17.51
2017-05-23T03:15:09.684Z,17.57
2017-05-23T03:15:28.980Z,17.58
2017-05-23T03:15:47.722Z,17.58
2017-05-23T03:16:06.481Z,17.63
2017-05-23T03:16:25.755Z,17.63
2017-05-23T03:16:44.541Z,17.57
2017-05-23T03:17:03.302Z,17.66
2017-05-23T03:17:22.587Z,17.47
2017-05-23T03:17:42.120Z,17.57
2017-05-23T03:18:01.593Z,17.58
2017-05-23T03:18:20.854Z,17.64
2017-05-23T03:18:40.135Z,17.58
2017-05-23T03:18:58.387Z,17.66
2017-05-23T03:19:17.687Z,17.7
2017-05-23T03:19:36.962Z,17.77
2017-05-23T03:19:56.248Z,17.74
2017-05-23T03:20:15.746Z,17.76
2017-05-23T03:20:34.540Z,17.71
2017-05-23T03:20:53.808Z,17.7
2017-05-23T03:21:13.053Z,17.67
2017-05-23T03:21:31.783Z,17.77
2017-05-23T03:21:51.062Z,17.69
2017-05-23T03:22:10.327Z,17.71
2017-05-23T03:22:29.631Z,17.71
2017-05-23T03:22:48.888Z,17.7
2017-05-23T03:23:08.181Z,17.79
2017-05-23T03:23:27.451Z,17.73
2017-05-23T03:23:46.734Z,17.7
2017-05-23T03:24:06.016Z,17.77
2017-05-23T03:24:25.282Z,17.73
2017-05-23T03:24:44.578Z,17.57
2017-05-23T03:25:03.863Z,17.67
2017-05-23T03:25:22.862Z,17.63
2017-05-23T03:25:41.645Z,17.64
2017-05-23T03:26:00.926Z,17.67
2017-05-23T03:26:20.171Z,17.58
2017-05-23T03:26:39.605Z,17.64
2017-05-23T03:26:58.360Z,17.63
2017-05-23T03:27:17.096Z,17.58
2017-05-23T03:27:35.859Z,17.58
2017-05-23T03:27:55.173Z,17.58
2017-05-23T03:28:13.986Z,17.64
2017-05-23T03:28:32.741Z,17.57
2017-05-23T03:28:52.084Z,17.66
2017-05-23T03:29:10.856Z,17.69
2017-05-23T03:29:30.141Z,17.66
2017-05-23T03:29:49.426Z,17.66
2017-05-23T03:30:08.184Z,17.64
2017-05-23T03:30:26.930Z,17.67
2017-05-23T03:30:46.186Z,17.67
2017-05-23T03:31:05.491Z,17.6
2017-05-23T03:31:24.800Z,17.67
2017-05-23T03:31:43.600Z,17.7
2017-05-23T03:32:02.378Z,17.69
2017-05-23T03:32:21.651Z,17.6
2017-05-23T03:32:40.443Z,17.57
2017-05-23T03:32:59.729Z,17.54
2017-05-23T03:33:18.972Z,17.48
2017-05-23T03:33:38.263Z,17.46
2017-05-23T03:33:57.527Z,17.47
2017-05-23T03:34:16.313Z,17.47
2017-05-23T03:34:35.623Z,17.48
2017-05-23T03:34:54.423Z,17.47
2017-05-23T03:35:13.717Z,17.47
2017-05-23T03:35:33.007Z,17.48
2017-05-23T03:35:52.293Z,17.46
2017-05-23T03:36:11.094Z,17.5
2017-05-23T03:36:29.854Z,17.54
2017-05-23T03:36:48.582Z,17.5
2017-05-23T03:37:07.360Z,17.51
2017-05-23T03:37:26.669Z,17.58
2017-05-23T03:37:45.445Z,17.53
2017-05-23T03:38:04.733Z,17.57
2017-05-23T03:38:23.450Z,17.58
2017-05-23T03:38:42.190Z,17.48
2017-05-23T03:39:01.466Z,17.5
2017-05-23T03:39:19.717Z,17.53
2017-05-23T03:39:38.973Z,17.53
2017-05-23T03:39:58.286Z,17.53
2017-05-23T03:40:17.599Z,17.55
2017-05-23T03:40:36.904Z,17.48
2017-05-23T03:40:56.160Z,17.48
2017-05-23T03:41:15.426Z,17.47
2017-05-23T03:41:34.683Z,17.38
2017-05-23T03:41:53.954Z,17.5
2017-05-23T03:42:12.698Z,17.55
2017-05-23T03:42:31.491Z,17.43
2017-05-23T03:42:50.768Z,17.39
2017-05-23T03:43:09.573Z,17.54
2017-05-23T03:43:28.361Z,17.5
2017-05-23T03:43:46.616Z,17.53
2017-05-23T03:44:05.901Z,17.53
2017-05-23T03:44:24.667Z,17.5
2017-05-23T03:44:43.952Z,17.51
2017-05-23T03:45:03.291Z,17.51
2017-05-23T03:45:22.602Z,17.36
2017-05-23T03:45:41.832Z,17.39
2017-05-23T03:46:01.140Z,17.5
2017-05-23T03:46:19.915Z,17.51
2017-05-23T03:46:39.238Z,17.43
2017-05-23T03:46:58.510Z,17.4
2017-05-23T03:47:17.814Z,17.36
2017-05-23T03:47:37.129Z,17.39
2017-05-23T03:47:56.448Z,17.4
2017-05-23T03:48:15.707Z,17.32
2017-05-23T03:48:34.491Z,17.36
2017-05-23T03:48:53.814Z,17.35
2017-05-23T03:49:13.114Z,17.39
2017-05-23T03:49:32.475Z,17.33
2017-05-23T03:49:51.409Z,17.32
2017-05-23T03:50:10.676Z,17.33
2017-05-23T03:50:29.442Z,17.26
2017-05-23T03:50:48.702Z,17.39
2017-05-23T03:51:07.982Z,17.36
2017-05-23T03:51:27.293Z,17.36
2017-05-23T03:51:46.114Z,17.36
2017-05-23T03:52:05.517Z,17.38
2017-05-23T03:52:24.750Z,17.39
2017-05-23T03:52:42.490Z,17.36
2017-05-23T03:53:01.767Z,17.32
2017-05-23T03:53:21.167Z,17.2
2017-05-23T03:53:40.459Z,17.32
2017-05-23T03:53:59.273Z,17.17
2017-05-23T03:54:18.046Z,17.2
2017-05-23T03:54:36.776Z,17.1
2017-05-23T03:54:56.040Z,17.02
2017-05-23T03:55:15.337Z,17.08
2017-05-23T03:55:34.117Z,17.13
2017-05-23T03:55:53.387Z,17.08
2017-05-23T03:56:12.191Z,17.15
2017-05-23T03:56:31.488Z,17.11
2017-05-23T03:56:50.785Z,17.14
2017-05-23T03:57:10.118Z,17.13
2017-05-23T03:57:28.323Z,17.13
2017-05-23T03:57:46.578Z,17.17
2017-05-23T03:58:05.879Z,17.02
2017-05-23T03:58:24.213Z,17.03
2017-05-23T03:58:43.462Z,17.08
2017-05-23T03:59:02.776Z,17
2017-05-23T03:59:22.033Z,17.05
2017-05-23T03:59:41.330Z,17.07
2017-05-23T04:00:00.847Z,16.95
2017-05-23T04:00:20.128Z,17.08
2017-05-23T04:00:38.940Z,16.93
2017-05-23T04:00:57.709Z,16.93
2017-05-23T04:01:16.934Z,17.07
2017-05-23T04:01:35.718Z,16.93
2017-05-23T04:01:54.512Z,16.96
2017-05-23T04:02:13.788Z,17.05
2017-05-23T04:02:32.555Z,16.99
2017-05-23T04:02:51.335Z,16.95
2017-05-23T04:03:10.572Z,16.96
2017-05-23T04:03:29.860Z,16.92
2017-05-23T04:03:49.150Z,16.88
2017-05-23T04:04:07.910Z,16.88
2017-05-23T04:04:27.200Z,16.82
2017-05-23T04:04:44.950Z,16.81
2017-05-23T04:05:04.233Z,16.89
2017-05-23T04:05:23.518Z,16.8
2017-05-23T04:05:42.799Z,16.82
2017-05-23T04:06:02.110Z,16.85
2017-05-23T04:06:21.357Z,16.82
2017-05-23T04:06:40.620Z,16.71
2017-05-23T04:06:59.939Z,16.77
2017-05-23T04:07:18.700Z,16.81
2017-05-23T04:07:37.519Z,16.78
2017-05-23T04:07:56.770Z,16.66
2017-05-23T04:08:16.034Z,16.7
2017-05-23T04:08:35.293Z,16.71
2017-05-23T04:08:54.047Z,16.75
2017-05-23T04:09:12.797Z,16.73
2017-05-23T04:09:32.088Z,16.88
2017-05-23T04:09:51.382Z,16.67